createdAt,value
2023-01-05T17:01:58.511Z,144.00
2023-01-05T17:03:31.795Z,147.00
2023-01-05T17:05:04.157Z,138.50
2023-01-05T17:06:36.446Z,145.00
2023-01-05T17:08:19.625Z,154.50
2023-01-05T17:09:51.879Z,142.75
2023-01-05T17:11:24.194Z,151.75
2023-01-05T17:13:08.246Z,160.75
2023-01-05T17:14:41.575Z,127.25
2023-01-05T17:16:13.862Z,133.25
2023-01-05T17:17:45.811Z,113.25
2023-01-05T17:19:19.574Z,108.80
2023-01-05T17:20:52.628Z,114.40
2023-01-05T17:22:24.690Z,119.25
2023-01-05T17:23:58.132Z,113.75
2023-01-05T17:25:32.853Z,113.75
2023-01-05T17:27:05.084Z,117.00
2023-01-05T17:28:37.580Z,104.80
2023-01-05T17:30:16.428Z,93.20
2023-01-05T17:31:48.357Z,93.50
2023-01-05T17:33:20.292Z,88.75
2023-01-05T17:34:52.321Z,87.00
2023-01-05T17:36:27.315Z,84.75
2023-01-05T17:37:59.565Z,83.75
2023-01-05T17:41:04.937Z,92.00
2023-01-05T17:42:42.771Z,91.25
2023-01-05T17:44:14.929Z,82.25
2023-01-05T17:45:47.053Z,88.25
2023-01-05T17:47:19.219Z,81.50
2023-01-05T17:48:51.068Z,94.00
2023-01-05T17:50:27.935Z,91.00
2023-01-05T17:51:59.795Z,84.75
2023-01-05T17:53:31.625Z,95.00
2023-01-05T17:55:03.960Z,84.00
2023-01-05T17:56:36.293Z,100.50
2023-01-05T17:58:09.090Z,94.00
2023-01-05T18:01:14.507Z,87.50
2023-01-05T18:02:47.145Z,93.75
2023-01-05T18:04:19.580Z,82.75
2023-01-05T18:05:53.089Z,85.75
2023-01-05T18:07:25.478Z,89.75
2023-01-05T18:08:57.629Z,85.00
2023-01-05T18:10:29.562Z,92.50
2023-01-05T18:12:01.721Z,81.50
2023-01-05T18:13:34.124Z,79.50
2023-01-05T18:15:07.066Z,81.50
2023-01-05T18:16:39.097Z,85.00
2023-01-05T18:18:11.422Z,83.00
2023-01-05T18:21:20.390Z,80.75
2023-01-05T18:22:52.449Z,74.25
2023-01-05T18:24:24.447Z,75.25
2023-01-05T18:25:56.483Z,77.50
2023-01-05T18:27:28.538Z,79.00
2023-01-05T18:29:00.370Z,75.50
2023-01-05T18:30:32.308Z,72.75
2023-01-05T18:32:04.759Z,81.25
2023-01-05T18:33:36.717Z,77.50
2023-01-05T18:35:10.207Z,86.50
2023-01-05T18:36:42.624Z,91.00
2023-01-05T18:38:14.784Z,90.75
2023-01-05T18:39:47.182Z,92.50
2023-01-05T18:41:25.816Z,81.25
2023-01-05T18:42:58.381Z,104.00
2023-01-05T18:44:30.933Z,99.60
2023-01-05T18:46:04.345Z,104.25
2023-01-05T18:47:36.409Z,110.60
2023-01-05T18:49:08.686Z,92.80
2023-01-05T18:50:43.318Z,100.80
2023-01-05T18:52:15.637Z,98.00
2023-01-05T18:53:47.806Z,101.80
2023-01-05T18:55:20.137Z,103.40
2023-01-05T18:56:52.306Z,111.60
2023-01-05T18:58:24.434Z,113.00
2023-01-05T18:59:56.534Z,104.60
2023-01-05T19:01:28.525Z,120.20
2023-01-05T19:03:00.688Z,110.20
2023-01-05T19:04:32.926Z,112.40
2023-01-05T19:06:07.014Z,114.40
2023-01-05T19:07:40.057Z,122.20
2023-01-05T19:09:12.785Z,113.25
2023-01-05T19:10:45.120Z,124.00
2023-01-05T19:12:17.407Z,134.25
2023-01-05T19:13:50.206Z,123.50
2023-01-05T19:15:22.449Z,127.75
2023-01-05T19:16:54.536Z,119.50
2023-01-05T19:18:27.179Z,109.75
2023-01-05T19:19:59.482Z,118.75
2023-01-05T19:21:32.570Z,110.00
2023-01-05T19:23:04.427Z,123.25
2023-01-05T19:24:36.393Z,112.40
2023-01-05T19:26:08.387Z,110.00
2023-01-05T19:27:40.546Z,116.75
2023-01-05T19:29:12.672Z,115.75
2023-01-05T19:30:44.574Z,118.25
2023-01-05T19:32:16.466Z,117.50
2023-01-05T19:33:48.383Z,107.80
2023-01-05T19:35:20.278Z,119.20
2023-01-05T19:36:52.203Z,120.20
2023-01-05T19:38:24.448Z,110.00
2023-01-05T19:39:56.526Z,99.60
2023-01-05T19:41:28.770Z,105.60
2023-01-05T19:43:00.943Z,104.00
2023-01-05T19:44:32.891Z,96.50
2023-01-05T19:46:06.903Z,98.80
2023-01-05T19:47:41.044Z,80.25
2023-01-05T19:49:16.686Z,110.40
2023-01-05T19:51:00.117Z,102.80
2023-01-05T19:52:32.446Z,86.75
2023-01-05T19:54:04.944Z,81.75
2023-01-05T19:55:39.347Z,93.75
2023-01-05T19:57:11.505Z,92.50
2023-01-05T19:58:44.055Z,101.75
2023-01-05T20:00:16.780Z,110.40
2023-01-05T20:01:49.011Z,108.60
2023-01-05T20:03:20.987Z,113.00
2023-01-05T20:04:53.440Z,112.60
2023-01-05T20:06:34.323Z,112.50
2023-01-05T20:08:06.581Z,103.50
2023-01-05T20:09:38.495Z,128.75
2023-01-05T20:11:12.703Z,125.75
2023-01-05T20:12:44.682Z,127.50
2023-01-05T20:14:17.524Z,126.50
2023-01-05T20:15:49.584Z,125.00
2023-01-05T20:17:21.490Z,123.75
2023-01-05T20:18:53.619Z,118.75
2023-01-05T20:20:25.595Z,116.60
2023-01-05T20:21:58.619Z,116.00
2023-01-05T20:23:35.314Z,116.40
2023-01-05T20:25:09.234Z,123.25
2023-01-05T20:26:42.277Z,118.50
2023-01-05T20:28:14.432Z,118.25
2023-01-05T20:29:46.504Z,119.25
2023-01-05T20:31:29.665Z,116.50
2023-01-05T20:33:01.605Z,117.50
2023-01-05T20:34:36.406Z,130.75
2023-01-05T20:36:08.362Z,136.75
2023-01-05T20:37:40.435Z,120.00
2023-01-05T20:39:15.114Z,102.25
2023-01-05T20:40:47.026Z,115.60
2023-01-05T20:42:19.043Z,115.00
2023-01-05T20:43:51.352Z,116.25
2023-01-05T20:45:23.400Z,130.25
2023-01-05T20:46:55.709Z,136.50
2023-01-05T20:48:27.787Z,125.25
2023-01-05T20:49:59.769Z,124.50
2023-01-05T20:51:31.679Z,117.25
2023-01-05T20:53:03.639Z,129.00
2023-01-05T20:54:35.586Z,129.25
2023-01-05T20:56:09.570Z,121.20
2023-01-05T20:57:41.540Z,125.25
2023-01-05T20:59:23.146Z,115.00
2023-01-05T21:01:09.413Z,112.80
2023-01-05T21:02:42.998Z,111.60
2023-01-05T21:04:15.188Z,100.60
2023-01-05T21:05:47.274Z,105.00
2023-01-05T21:07:20.362Z,106.40
2023-01-05T21:08:52.324Z,98.00
2023-01-05T21:10:24.297Z,105.20
2023-01-05T21:11:56.506Z,114.20
2023-01-05T21:13:31.743Z,112.40
2023-01-05T21:15:05.234Z,120.00
2023-01-05T21:16:39.941Z,109.60
2023-01-05T21:18:12.003Z,105.00
2023-01-05T21:19:44.280Z,115.00
2023-01-05T21:21:17.834Z,118.40
2023-01-05T21:22:49.847Z,110.75
2023-01-05T21:24:21.887Z,108.60
2023-01-05T21:26:07.083Z,112.00
2023-01-05T21:27:44.193Z,111.00
2023-01-05T21:29:16.497Z,104.00
2023-01-05T21:30:48.336Z,124.25
2023-01-05T21:32:20.336Z,128.75
2023-01-05T21:33:52.575Z,114.25
2023-01-05T21:35:24.505Z,111.20
2023-01-05T21:36:56.471Z,98.60
2023-01-05T21:39:01.648Z,98.20
2023-01-05T21:40:20.389Z,89.25
2023-01-05T21:42:11.327Z,87.50
2023-01-05T21:43:43.245Z,100.40
2023-01-05T21:45:15.155Z,102.25
2023-01-05T21:46:47.481Z,98.40
2023-01-05T21:48:19.373Z,91.20
2023-01-05T21:49:51.439Z,93.50
2023-01-05T21:51:42.006Z,94.67
2023-01-05T21:53:33.521Z,91.25
2023-01-05T21:55:31.397Z,96.50
2023-01-05T21:57:03.287Z,91.60
2023-01-05T21:58:35.600Z,100.50
2023-01-05T22:00:08.680Z,97.20
2023-01-05T22:01:40.653Z,110.20
2023-01-05T22:03:12.623Z,99.20
2023-01-05T22:04:44.503Z,100.50
2023-01-05T22:06:16.641Z,98.50
2023-01-05T22:07:48.460Z,92.00
2023-01-05T22:09:20.320Z,108.20
2023-01-05T22:10:56.099Z,103.00
2023-01-05T22:12:28.024Z,89.50
2023-01-05T22:14:00.080Z,93.75
2023-01-05T22:15:31.930Z,96.60
2023-01-05T22:17:04.889Z,99.00
2023-01-05T22:18:36.738Z,87.25
2023-01-05T22:20:09.170Z,93.75
2023-01-05T22:21:41.199Z,82.50
2023-01-05T22:23:13.912Z,92.00
2023-01-05T22:24:45.812Z,81.75
2023-01-05T22:26:18.548Z,80.00
2023-01-05T22:27:50.405Z,92.25
2023-01-05T22:29:22.388Z,84.25
2023-01-05T22:31:07.633Z,84.25
2023-01-05T22:32:39.631Z,77.00
2023-01-05T22:34:11.526Z,78.50
2023-01-05T22:35:43.388Z,84.25
2023-01-05T22:37:16.312Z,79.75
2023-01-05T22:38:49.001Z,79.75
2023-01-05T22:40:20.956Z,79.75
2023-01-05T22:41:52.861Z,75.50
2023-01-05T22:43:25.204Z,77.50
2023-01-05T22:44:57.130Z,76.00
2023-01-05T22:46:29.610Z,74.50
2023-01-05T22:48:01.608Z,76.00
2023-01-05T22:49:33.713Z,75.00
2023-01-05T22:51:07.669Z,65.75
2023-01-05T22:52:39.490Z,65.00
2023-01-05T22:54:11.435Z,73.75
2023-01-05T22:55:44.173Z,73.25
2023-01-05T22:57:16.099Z,69.75
2023-01-05T22:58:48.088Z,67.00
2023-01-05T23:00:19.981Z,61.75
2023-01-05T23:01:51.957Z,58.00
2023-01-05T23:03:23.846Z,60.60
2023-01-05T23:04:55.909Z,53.40
2023-01-05T23:06:27.972Z,52.00
2023-01-05T23:07:59.882Z,54.20
2023-01-05T23:09:31.722Z,53.40
2023-01-05T23:11:08.660Z,52.60
2023-01-05T23:12:40.719Z,50.80
2023-01-05T23:14:12.641Z,56.60
2023-01-05T23:15:44.491Z,48.60
2023-01-05T23:17:16.402Z,52.00
2023-01-05T23:18:49.927Z,47.40
2023-01-05T23:20:21.922Z,48.20
2023-01-05T23:21:53.919Z,52.40
2023-01-05T23:23:26.248Z,46.60
2023-01-05T23:37:01.062Z,37.25
2023-01-05T23:38:33.260Z,38.00
2023-01-05T23:40:05.762Z,29.80
2023-01-05T23:41:37.700Z,21.20
2023-01-05T23:43:13.109Z,30.00
2023-01-05T23:44:45.001Z,24.20
2023-01-05T23:46:20.469Z,27.80
2023-01-05T23:47:52.529Z,26.00
2023-01-05T23:49:24.372Z,25.20
2023-01-05T23:50:56.574Z,24.20
2023-01-05T23:52:28.499Z,23.00
2023-01-05T23:54:00.439Z,21.80
2023-01-05T23:55:32.327Z,23.00
2023-01-05T23:57:04.246Z,24.20
2023-01-05T23:58:36.196Z,24.20
